Time;durP1;ratioP1;P1;durP2;ratioP2;P2;SDS_P1;SDS_P2;PMS_P1;PMS_P2;Temp;Humidity;BMP_temperature;BMP_pressure;BME280_temperature;BME280_humidity;BME280_pressure;Samples;Min_cycle;Max_cycle;Signal;HPM_P1;HPM_P2
2023/11/07 00:01:49;;;;;;;14.10;4.18;;;;;;;;;;5024606;28;20624;-69
2023/11/07 00:04:15;;;;;;;17.15;4.28;;;;;;;;;;5027763;28;20190;-71
2023/11/07 00:06:40;;;;;;;16.00;4.40;;;;;;;;;;5025285;28;20531;-69
2023/11/07 00:09:07;;;;;;;14.80;4.60;;;;;;;;;;5020133;28;20194;-70
2023/11/07 00:11:33;;;;;;;12.90;4.00;;;;;;;;;;5028019;28;20265;-70
2023/11/07 00:13:58;;;;;;;11.00;4.03;;;;;;;;;;5030890;28;20289;-69
2023/11/07 00:16:25;;;;;;;12.07;4.07;;;;;;;;;;5026128;28;20249;-70
2023/11/07 00:18:51;;;;;;;20.35;4.70;;;;;;;;;;5025182;28;20186;-70
2023/11/07 00:21:16;;;;;;;16.67;4.20;;;;;;;;;;5023111;28;20209;-70
2023/11/07 00:23:42;;;;;;;13.25;4.18;;;;;;;;;;5013853;28;20525;-71
2023/11/07 00:26:07;;;;;;;13.18;3.88;;;;;;;;;;5029330;28;20197;-70
2023/11/07 00:28:32;;;;;;;11.88;4.03;;;;;;;;;;5035573;28;20198;-69
2023/11/07 00:30:58;;;;;;;10.90;4.32;;;;;;;;;;5031504;28;20190;-70
2023/11/07 00:33:23;;;;;;;15.82;3.80;;;;;;;;;;5024463;28;20275;-69
2023/11/07 00:35:48;;;;;;;14.20;4.05;;;;;;;;;;5031576;28;20606;-70
2023/11/07 00:38:14;;;;;;;10.05;3.72;;;;;;;;;;5030227;28;20193;-70
2023/11/07 00:40:39;;;;;;;11.15;4.03;;;;;;;;;;5029375;28;20209;-69
2023/11/07 00:43:04;;;;;;;14.00;3.97;;;;;;;;;;5028076;28;20186;-69
2023/11/07 00:45:30;;;;;;;11.73;3.90;;;;;;;;;;5029826;28;20656;-68
2023/11/07 00:47:56;;;;;;;12.80;4.10;;;;;;;;;;5030337;28;20310;-68
2023/11/07 00:50:22;;;;;;;16.83;4.30;;;;;;;;;;5035064;28;20529;-69
2023/11/07 00:52:48;;;;;;;10.60;4.10;;;;;;;;;;5029774;28;20210;-70
2023/11/07 00:55:14;;;;;;;13.63;4.43;;;;;;;;;;5016808;28;20198;-70
2023/11/07 00:57:39;;;;;;;12.13;4.10;;;;;;;;;;5031090;28;20185;-71
2023/11/07 01:00:05;;;;;;;16.05;4.20;;;;;;;;;;5029784;28;20189;-70
2023/11/07 01:02:31;;;;;;;16.30;4.38;;;;;;;;;;5027098;28;20221;-73
2023/11/07 01:04:56;;;;;;;12.85;3.92;;;;;;;;;;5028338;28;20214;-71
2023/11/07 01:07:21;;;;;;;11.10;4.00;;;;;;;;;;5029627;28;20182;-73
2023/11/07 01:09:47;;;;;;;18.00;4.13;;;;;;;;;;5039645;28;20190;-69
2023/11/07 01:12:13;;;;;;;12.88;4.57;;;;;;;;;;5030574;28;20178;-69
2023/11/07 01:14:39;;;;;;;13.80;4.18;;;;;;;;;;5027173;28;21375;-69
2023/11/07 01:17:04;;;;;;;18.73;4.13;;;;;;;;;;5029920;28;20297;-68
2023/11/07 01:19:30;;;;;;;13.77;4.93;;;;;;;;;;5029257;28;20251;-68
2023/11/07 01:21:55;;;;;;;14.98;4.40;;;;;;;;;;5030208;28;20544;-70
2023/11/07 01:24:20;;;;;;;11.77;3.92;;;;;;;;;;5024177;28;20235;-69
2023/11/07 01:26:46;;;;;;;18.95;4.45;;;;;;;;;;5028685;28;20577;-69
2023/11/07 01:29:12;;;;;;;12.50;4.47;;;;;;;;;;5022769;28;20236;-69
2023/11/07 01:31:38;;;;;;;21.10;4.93;;;;;;;;;;5024369;28;20194;-70
2023/11/07 01:34:04;;;;;;;18.73;4.60;;;;;;;;;;5021541;28;20202;-68
2023/11/07 01:36:29;;;;;;;15.43;4.68;;;;;;;;;;5017166;28;20224;-68
2023/11/07 01:38:55;;;;;;;16.47;3.90;;;;;;;;;;5023915;28;20197;-70
2023/11/07 01:41:20;;;;;;;10.38;4.00;;;;;;;;;;5035642;28;20198;-69
2023/11/07 01:43:46;;;;;;;10.43;3.70;;;;;;;;;;5025138;28;20178;-72
2023/11/07 01:46:11;;;;;;;11.68;3.65;;;;;;;;;;5024722;28;20277;-69
2023/11/07 01:48:37;;;;;;;18.17;4.23;;;;;;;;;;5027319;28;20252;-69
2023/11/07 01:51:03;;;;;;;12.20;3.57;;;;;;;;;;5028407;28;20219;-70
2023/11/07 01:53:30;;;;;;;9.23;3.07;;;;;;;;;;5035201;28;20236;-70
2023/11/07 01:55:57;;;;;;;13.38;4.10;;;;;;;;;;5030698;28;20174;-71
2023/11/07 01:58:23;;;;;;;9.70;3.85;;;;;;;;;;5019847;28;20538;-69
2023/11/07 02:00:49;;;;;;;11.55;3.75;;;;;;;;;;5029631;28;20190;-70
2023/11/07 02:03:15;;;;;;;11.68;3.47;;;;;;;;;;5033543;28;20192;-69
2023/11/07 02:05:41;;;;;;;13.23;3.93;;;;;;;;;;5016274;28;20621;-71
2023/11/07 02:08:09;;;;;;;14.15;4.22;;;;;;;;;;5029376;28;20236;-73
2023/11/07 02:10:35;;;;;;;15.20;4.35;;;;;;;;;;5026914;28;20218;-70
2023/11/07 02:13:01;;;;;;;10.97;5.00;;;;;;;;;;5021882;28;20293;-70
2023/11/07 02:15:27;;;;;;;12.70;4.05;;;;;;;;;;5028864;28;20218;-71
2023/11/07 02:17:52;;;;;;;13.25;3.92;;;;;;;;;;5027875;28;20240;-69
2023/11/07 02:20:18;;;;;;;14.20;3.57;;;;;;;;;;5020252;28;20269;-70
2023/11/07 02:22:46;;;;;;;10.07;3.47;;;;;;;;;;5028753;28;20530;-70
2023/11/07 02:25:18;;;;;;;13.20;3.83;;;;;;;;;;5029965;28;20700;-71
2023/11/07 02:27:44;;;;;;;9.90;3.50;;;;;;;;;;5026452;28;20202;-69
2023/11/07 02:30:12;;;;;;;9.57;3.90;;;;;;;;;;5017909;28;20209;-69
2023/11/07 02:32:41;;;;;;;11.97;3.93;;;;;;;;;;5029916;28;20628;-68
2023/11/07 02:35:08;;;;;;;9.73;3.28;;;;;;;;;;5025662;28;20269;-69
2023/11/07 02:37:34;;;;;;;10.27;3.83;;;;;;;;;;5027448;28;20279;-69
2023/11/07 02:39:59;;;;;;;12.97;3.80;;;;;;;;;;5016073;28;20275;-68
2023/11/07 02:42:28;;;;;;;10.97;3.93;;;;;;;;;;5020015;28;20214;-68
2023/11/07 02:44:54;;;;;;;10.98;3.97;;;;;;;;;;5027797;28;20200;-69
2023/11/07 02:47:19;;;;;;;10.05;3.78;;;;;;;;;;5032569;28;20548;-68
2023/11/07 02:49:45;;;;;;;15.35;3.70;;;;;;;;;;5031113;28;20200;-71
2023/11/07 02:52:10;;;;;;;15.55;3.58;;;;;;;;;;5028655;28;20224;-69
2023/11/07 02:54:35;;;;;;;13.73;3.40;;;;;;;;;;5028529;28;20660;-69
2023/11/07 02:57:01;;;;;;;12.97;3.90;;;;;;;;;;5024414;28;20204;-68
2023/11/07 02:59:26;;;;;;;11.63;3.57;;;;;;;;;;5024318;28;20228;-69
2023/11/07 03:01:52;;;;;;;9.50;3.38;;;;;;;;;;5027657;28;20194;-69
2023/11/07 03:04:17;;;;;;;14.63;3.50;;;;;;;;;;5024759;28;20285;-70
2023/11/07 03:06:43;;;;;;;11.40;3.80;;;;;;;;;;5040956;28;20193;-69
2023/11/07 03:09:10;;;;;;;17.43;3.63;;;;;;;;;;5027220;28;20222;-68
2023/11/07 03:11:36;;;;;;;14.48;3.35;;;;;;;;;;5021906;28;20190;-69
2023/11/07 03:14:01;;;;;;;12.33;3.57;;;;;;;;;;5016518;28;20259;-69
2023/11/07 03:16:26;;;;;;;9.88;3.65;;;;;;;;;;5031770;28;20230;-69
2023/11/07 03:18:52;;;;;;;18.23;3.95;;;;;;;;;;5031447;28;20187;-69
2023/11/07 03:21:18;;;;;;;11.23;3.60;;;;;;;;;;5032633;28;20198;-68
2023/11/07 03:23:44;;;;;;;15.30;3.80;;;;;;;;;;5027757;28;20278;-69
2023/11/07 03:26:10;;;;;;;15.38;4.03;;;;;;;;;;5027259;28;20229;-68
2023/11/07 03:28:36;;;;;;;14.13;3.57;;;;;;;;;;5032083;28;20206;-68
2023/11/07 03:31:01;;;;;;;16.30;4.53;;;;;;;;;;5031147;28;20654;-69
2023/11/07 03:33:26;;;;;;;13.75;4.07;;;;;;;;;;5042965;28;20218;-69
2023/11/07 03:35:52;;;;;;;12.43;4.20;;;;;;;;;;5031973;28;20254;-70
2023/11/07 03:38:17;;;;;;;10.75;3.70;;;;;;;;;;5030952;28;20186;-69
2023/11/07 03:40:43;;;;;;;14.57;4.87;;;;;;;;;;5030483;28;20190;-70
2023/11/07 03:43:08;;;;;;;17.25;4.40;;;;;;;;;;5031638;28;20179;-69
2023/11/07 03:45:33;;;;;;;14.37;4.00;;;;;;;;;;5023018;28;20206;-70
2023/11/07 03:47:59;;;;;;;12.10;4.10;;;;;;;;;;5049322;28;20504;-69
2023/11/07 03:50:24;;;;;;;9.13;4.55;;;;;;;;;;5020041;28;20274;-70
2023/11/07 03:52:50;;;;;;;13.52;4.40;;;;;;;;;;5015171;28;20290;-69
2023/11/07 03:55:16;;;;;;;16.15;4.50;;;;;;;;;;5017437;28;20549;-70
2023/11/07 03:57:42;;;;;;;13.37;4.57;;;;;;;;;;5019296;28;20265;-69
2023/11/07 04:00:10;;;;;;;17.13;4.80;;;;;;;;;;5026835;28;20190;-71
2023/11/07 04:02:37;;;;;;;13.30;4.70;;;;;;;;;;5034687;28;20255;-69
2023/11/07 04:05:03;;;;;;;9.57;3.95;;;;;;;;;;5031009;28;20693;-69
2023/11/07 04:07:29;;;;;;;11.52;4.30;;;;;;;;;;5031039;28;20190;-69
2023/11/07 04:09:55;;;;;;;12.98;4.32;;;;;;;;;;5021708;28;20216;-69
2023/11/07 04:12:21;;;;;;;12.57;4.45;;;;;;;;;;5022810;28;20213;-70
2023/11/07 04:14:47;;;;;;;14.77;5.05;;;;;;;;;;5022429;28;20205;-71
2023/11/07 04:17:12;;;;;;;17.92;4.75;;;;;;;;;;5028507;28;20227;-69
2023/11/07 04:19:38;;;;;;;12.32;4.60;;;;;;;;;;5035196;28;20249;-69
2023/11/07 04:22:04;;;;;;;15.70;4.28;;;;;;;;;;5019158;28;20205;-69
2023/11/07 04:24:30;;;;;;;12.80;4.85;;;;;;;;;;5031458;28;20568;-69
2023/11/07 04:26:57;;;;;;;14.25;4.75;;;;;;;;;;5028515;28;20224;-68
2023/11/07 04:29:23;;;;;;;12.85;4.85;;;;;;;;;;5029677;28;20200;-68
2023/11/07 04:31:48;;;;;;;21.95;5.28;;;;;;;;;;5021002;28;20189;-67
2023/11/07 04:34:14;;;;;;;12.90;5.55;;;;;;;;;;5032818;28;20341;-69
2023/11/07 04:36:39;;;;;;;20.90;5.55;;;;;;;;;;5030004;28;20212;-68
2023/11/07 04:39:06;;;;;;;14.10;4.82;;;;;;;;;;5030383;28;20185;-69
2023/11/07 04:41:33;;;;;;;11.30;4.70;;;;;;;;;;5022722;28;20291;-69
2023/11/07 04:44:00;;;;;;;13.40;5.47;;;;;;;;;;5031404;28;20201;-70
2023/11/07 04:46:26;;;;;;;14.93;5.57;;;;;;;;;;5023340;28;20185;-69
2023/11/07 04:48:52;;;;;;;19.30;5.53;;;;;;;;;;5023408;28;20509;-70
2023/11/07 04:51:20;;;;;;;12.93;5.80;;;;;;;;;;5027735;28;20190;-70
2023/11/07 04:53:46;;;;;;;14.53;5.00;;;;;;;;;;5026303;28;20206;-69
2023/11/07 04:56:12;;;;;;;15.70;4.87;;;;;;;;;;5021190;28;20264;-70
2023/11/07 04:58:37;;;;;;;14.60;4.50;;;;;;;;;;5025237;28;20186;-70
2023/11/07 05:01:05;;;;;;;15.48;5.28;;;;;;;;;;5016913;28;20189;-69
2023/11/07 05:03:31;;;;;;;19.93;5.53;;;;;;;;;;5025781;28;20221;-71
2023/11/07 05:05:58;;;;;;;12.60;4.80;;;;;;;;;;5014636;28;20669;-71
2023/11/07 05:08:23;;;;;;;18.67;5.85;;;;;;;;;;5020405;28;20205;-71
2023/11/07 05:10:49;;;;;;;16.20;5.75;;;;;;;;;;5021528;28;20679;-69
2023/11/07 05:13:14;;;;;;;13.77;5.07;;;;;;;;;;5017233;28;20571;-69
2023/11/07 05:15:42;;;;;;;17.27;5.73;;;;;;;;;;5017081;28;20610;-71
2023/11/07 05:18:09;;;;;;;20.60;5.65;;;;;;;;;;5023918;28;20194;-69
2023/11/07 05:20:36;;;;;;;13.73;5.55;;;;;;;;;;5031144;28;20603;-70
2023/11/07 05:23:01;;;;;;;17.42;6.03;;;;;;;;;;5029110;28;20200;-71
2023/11/07 05:25:27;;;;;;;17.92;5.97;;;;;;;;;;5029972;28;20178;-69
2023/11/07 05:27:52;;;;;;;12.68;5.47;;;;;;;;;;5029852;28;20606;-73
2023/11/07 05:30:18;;;;;;;14.43;5.95;;;;;;;;;;5021930;28;20187;-69
2023/11/07 05:32:47;;;;;;;13.32;6.32;;;;;;;;;;5031577;28;20206;-70
2023/11/07 05:35:14;;;;;;;15.23;6.28;;;;;;;;;;5022932;28;20194;-69
2023/11/07 05:37:39;;;;;;;19.27;7.00;;;;;;;;;;5029848;28;20182;-69
2023/11/07 05:40:05;;;;;;;16.92;6.63;;;;;;;;;;5029729;28;20744;-71
2023/11/07 05:42:31;;;;;;;16.52;7.18;;;;;;;;;;5029743;28;20201;-70
2023/11/07 05:44:57;;;;;;;21.25;7.85;;;;;;;;;;5044655;28;20194;-70
2023/11/07 05:47:22;;;;;;;18.90;8.40;;;;;;;;;;5028887;28;20248;-70
2023/11/07 05:49:50;;;;;;;15.73;7.65;;;;;;;;;;5016077;28;20545;-70
2023/11/07 05:52:16;;;;;;;15.50;7.35;;;;;;;;;;5027806;28;20194;-70
2023/11/07 05:54:41;;;;;;;19.23;7.35;;;;;;;;;;5038071;28;20201;-70
2023/11/07 05:57:08;;;;;;;18.77;8.15;;;;;;;;;;5029351;28;20251;-69
2023/11/07 05:59:34;;;;;;;22.87;7.80;;;;;;;;;;5029616;28;20247;-70
2023/11/07 06:01:59;;;;;;;16.75;7.18;;;;;;;;;;5039854;28;20674;-72
2023/11/07 06:04:30;;;;;;;15.48;7.53;;;;;;;;;;5030739;28;20197;-69
2023/11/07 06:06:57;;;;;;;15.10;7.15;;;;;;;;;;5023544;28;20641;-69
2023/11/07 06:09:23;;;;;;;20.60;8.27;;;;;;;;;;5028242;28;20712;-70
2023/11/07 06:11:48;;;;;;;17.98;7.00;;;;;;;;;;5024796;28;20278;-71
2023/11/07 06:14:16;;;;;;;16.38;7.30;;;;;;;;;;5009442;28;20523;-69
2023/11/07 06:16:41;;;;;;;19.08;8.00;;;;;;;;;;5029102;28;20354;-71
2023/11/07 06:19:10;;;;;;;17.00;7.43;;;;;;;;;;5021583;28;20675;-69
2023/11/07 06:21:36;;;;;;;17.00;8.55;;;;;;;;;;5024518;28;20220;-69
2023/11/07 06:24:02;;;;;;;15.07;9.02;;;;;;;;;;5023769;28;20186;-70
2023/11/07 06:26:27;;;;;;;19.27;7.90;;;;;;;;;;5026843;28;20194;-69
2023/11/07 06:28:53;;;;;;;19.20;8.25;;;;;;;;;;5025481;28;20198;-69
2023/11/07 06:31:26;;;;;;;17.58;7.60;;;;;;;;;;5022664;28;20193;-68
2023/11/07 06:33:52;;;;;;;24.90;7.85;;;;;;;;;;5012778;28;20269;-70
2023/11/07 06:36:18;;;;;;;18.67;8.50;;;;;;;;;;5019563;28;20202;-69
2023/11/07 06:38:43;;;;;;;16.30;8.05;;;;;;;;;;5024409;28;20205;-71
2023/11/07 06:41:09;;;;;;;16.98;8.43;;;;;;;;;;5026311;28;20606;-69
2023/11/07 06:43:35;;;;;;;19.25;8.23;;;;;;;;;;5022980;28;20221;-72
2023/11/07 06:46:01;;;;;;;23.27;8.73;;;;;;;;;;5024873;28;20189;-70
2023/11/07 06:48:28;;;;;;;19.85;8.70;;;;;;;;;;5024859;28;20288;-69
2023/11/07 06:50:54;;;;;;;27.50;9.25;;;;;;;;;;5023202;28;20308;-69
2023/11/07 06:53:20;;;;;;;17.10;8.23;;;;;;;;;;5027133;28;20519;-74
2023/11/07 06:55:45;;;;;;;15.53;8.50;;;;;;;;;;5020759;28;20264;-70
2023/11/07 06:58:11;;;;;;;17.42;8.73;;;;;;;;;;5017447;28;20195;-70
2023/11/07 07:00:38;;;;;;;13.63;8.75;;;;;;;;;;5018212;28;20186;-70
2023/11/07 07:03:03;;;;;;;16.73;8.90;;;;;;;;;;5025738;28;20198;-71
2023/11/07 07:05:29;;;;;;;17.25;8.10;;;;;;;;;;5026295;28;20190;-73
2023/11/07 07:07:54;;;;;;;15.10;8.60;;;;;;;;;;5025815;28;20285;-69
2023/11/07 07:10:20;;;;;;;16.48;8.75;;;;;;;;;;5020563;28;20486;-70
2023/11/07 07:12:45;;;;;;;21.67;9.00;;;;;;;;;;5009231;28;20225;-70
2023/11/07 07:15:11;;;;;;;21.13;8.83;;;;;;;;;;5026657;28;20235;-69
2023/11/07 07:17:37;;;;;;;17.63;8.73;;;;;;;;;;5039310;28;20387;-69
2023/11/07 07:20:11;;;;;;;15.60;8.70;;;;;;;;;;5010607;28;20201;-69
2023/11/07 07:22:44;;;;;;;13.57;8.10;;;;;;;;;;5013662;28;20189;-70
2023/11/07 07:25:15;;;;;;;16.52;8.48;;;;;;;;;;5022699;28;20191;-69
2023/11/07 07:27:45;;;;;;;12.43;8.32;;;;;;;;;;5021379;28;20190;-70
2023/11/07 07:30:16;;;;;;;17.02;8.73;;;;;;;;;;5021719;28;20222;-69
2023/11/07 07:32:42;;;;;;;20.88;9.27;;;;;;;;;;5024972;28;20221;-69
2023/11/07 07:35:15;;;;;;;16.80;8.98;;;;;;;;;;5020560;28;20212;-70
2023/11/07 07:37:41;;;;;;;15.32;8.88;;;;;;;;;;5020398;28;20701;-70
2023/11/07 07:40:11;;;;;;;15.27;8.73;;;;;;;;;;5025938;28;20186;-70
2023/11/07 07:42:37;;;;;;;13.50;8.73;;;;;;;;;;5027775;28;20190;-70
2023/11/07 07:45:07;;;;;;;17.08;9.23;;;;;;;;;;4325163;28;10000828;-69
2023/11/07 07:47:35;;;;;;;13.65;8.75;;;;;;;;;;5024934;28;20217;-71
2023/11/07 07:50:01;;;;;;;17.38;8.93;;;;;;;;;;5026261;28;20536;-69
2023/11/07 07:52:29;;;;;;;12.82;8.18;;;;;;;;;;5025401;28;20322;-71
2023/11/07 07:54:56;;;;;;;15.75;8.40;;;;;;;;;;5027470;28;20206;-69
2023/11/07 07:57:22;;;;;;;12.70;7.90;;;;;;;;;;5025655;28;20214;-70
2023/11/07 07:59:47;;;;;;;16.42;8.73;;;;;;;;;;5026549;28;20217;-70
2023/11/07 08:02:12;;;;;;;18.83;7.97;;;;;;;;;;5025109;28;20183;-69
2023/11/07 08:04:38;;;;;;;14.32;8.55;;;;;;;;;;5025572;28;20193;-69
2023/11/07 08:07:05;;;;;;;15.18;8.48;;;;;;;;;;5025073;28;20213;-70
2023/11/07 08:09:30;;;;;;;16.63;9.13;;;;;;;;;;5007985;28;20634;-68
2023/11/07 08:12:00;;;;;;;18.58;7.82;;;;;;;;;;5015479;28;20194;-69
2023/11/07 08:14:26;;;;;;;21.20;8.48;;;;;;;;;;5020757;28;20245;-71
2023/11/07 08:16:52;;;;;;;12.13;7.53;;;;;;;;;;5031113;28;20253;-69
2023/11/07 08:19:20;;;;;;;16.13;8.35;;;;;;;;;;5018562;28;20241;-69
2023/11/07 08:21:46;;;;;;;15.27;8.00;;;;;;;;;;5034601;28;20543;-70
2023/11/07 08:24:13;;;;;;;14.30;7.43;;;;;;;;;;5026687;28;20289;-70
2023/11/07 08:26:38;;;;;;;12.35;7.75;;;;;;;;;;5026577;28;20219;-70
2023/11/07 08:29:07;;;;;;;14.77;7.57;;;;;;;;;;5017429;28;20302;-71
2023/11/07 08:31:37;;;;;;;18.65;7.93;;;;;;;;;;5027360;28;20568;-70
2023/11/07 08:34:09;;;;;;;12.57;7.30;;;;;;;;;;5016608;28;20217;-69
2023/11/07 08:36:38;;;;;;;12.50;7.07;;;;;;;;;;5029234;28;20183;-71
2023/11/07 08:39:05;;;;;;;10.70;7.18;;;;;;;;;;5034155;28;20198;-70
2023/11/07 08:41:30;;;;;;;12.13;7.50;;;;;;;;;;5024674;28;20617;-68
2023/11/07 08:43:56;;;;;;;14.07;7.47;;;;;;;;;;5028246;28;20182;-69
2023/11/07 08:46:23;;;;;;;13.32;6.57;;;;;;;;;;5026947;28;20222;-69
2023/11/07 08:48:50;;;;;;;14.55;7.38;;;;;;;;;;5036056;28;20192;-70
2023/11/07 08:51:19;;;;;;;15.85;6.50;;;;;;;;;;5029198;28;20663;-70
2023/11/07 08:53:44;;;;;;;15.02;7.05;;;;;;;;;;5038158;28;20221;-72
2023/11/07 08:56:13;;;;;;;13.73;6.35;;;;;;;;;;5023808;28;20400;-70
2023/11/07 08:58:39;;;;;;;15.02;6.75;;;;;;;;;;5014980;28;20277;-69
2023/11/07 09:01:04;;;;;;;13.63;6.88;;;;;;;;;;5033876;28;20189;-71
2023/11/07 09:03:30;;;;;;;10.38;5.97;;;;;;;;;;5024005;28;20625;-69
2023/11/07 09:05:56;;;;;;;10.93;5.95;;;;;;;;;;5020871;28;20205;-69
2023/11/07 09:08:21;;;;;;;12.18;6.00;;;;;;;;;;5011737;28;20194;-70
2023/11/07 09:10:47;;;;;;;8.48;5.43;;;;;;;;;;5018506;28;20194;-70
2023/11/07 09:13:14;;;;;;;12.52;6.13;;;;;;;;;;5018036;28;20233;-71
2023/11/07 09:15:40;;;;;;;9.15;5.65;;;;;;;;;;5018519;28;20209;-70
2023/11/07 09:18:07;;;;;;;11.05;6.05;;;;;;;;;;5019056;28;20707;-71
2023/11/07 09:20:34;;;;;;;13.38;5.65;;;;;;;;;;5020217;28;20227;-70
2023/11/07 09:22:59;;;;;;;8.02;5.15;;;;;;;;;;5019156;28;20209;-69
2023/11/07 09:25:25;;;;;;;10.45;5.18;;;;;;;;;;5019004;28;20202;-70
2023/11/07 09:27:51;;;;;;;11.18;5.03;;;;;;;;;;5020601;28;20182;-73
2023/11/07 09:30:18;;;;;;;9.15;5.32;;;;;;;;;;5018740;28;20194;-70
2023/11/07 09:32:43;;;;;;;10.77;5.65;;;;;;;;;;5024725;28;20751;-71
2023/11/07 09:35:09;;;;;;;11.50;5.70;;;;;;;;;;5039770;28;20261;-70
2023/11/07 09:37:42;;;;;;;9.98;5.38;;;;;;;;;;5021073;28;20331;-71
2023/11/07 09:40:10;;;;;;;8.77;4.90;;;;;;;;;;5023819;28;20559;-70
2023/11/07 09:42:39;;;;;;;6.80;4.10;;;;;;;;;;5022263;28;20202;-70
2023/11/07 09:45:11;;;;;;;9.00;4.85;;;;;;;;;;5024887;28;20726;-71
2023/11/07 09:47:38;;;;;;;8.68;4.35;;;;;;;;;;5023985;28;20186;-70
2023/11/07 09:50:07;;;;;;;8.65;4.57;;;;;;;;;;5027826;28;20254;-71
2023/11/07 09:52:36;;;;;;;8.35;4.25;;;;;;;;;;5014251;28;20270;-71
2023/11/07 09:55:08;;;;;;;6.38;4.15;;;;;;;;;;5040171;28;20264;-73
2023/11/07 09:57:38;;;;;;;12.73;4.50;;;;;;;;;;5021237;28;20202;-69
2023/11/07 10:00:08;;;;;;;7.18;3.70;;;;;;;;;;5010063;28;20191;-72
2023/11/07 10:02:34;;;;;;;8.40;4.60;;;;;;;;;;5021909;28;20195;-70
2023/11/07 10:05:00;;;;;;;9.13;4.05;;;;;;;;;;5027418;28;20235;-69
2023/11/07 10:07:26;;;;;;;6.13;4.10;;;;;;;;;;5021215;28;20193;-70
2023/11/07 10:09:52;;;;;;;7.03;4.20;;;;;;;;;;5027230;28;20190;-70
2023/11/07 10:12:18;;;;;;;6.00;3.67;;;;;;;;;;5020728;28;20228;-71
2023/11/07 10:14:44;;;;;;;8.77;3.90;;;;;;;;;;5015981;28;20210;-69
2023/11/07 10:17:20;;;;;;;6.78;3.78;;;;;;;;;;5017894;28;20316;-70
2023/11/07 10:19:46;;;;;;;8.98;3.50;;;;;;;;;;5013530;28;20220;-70
2023/11/07 10:22:12;;;;;;;6.60;3.50;;;;;;;;;;5025523;28;20182;-70
2023/11/07 10:24:44;;;;;;;8.77;3.35;;;;;;;;;;5019077;28;20186;-69
2023/11/07 10:27:11;;;;;;;6.25;3.20;;;;;;;;;;5024347;28;20181;-69
2023/11/07 10:29:49;;;;;;;6.20;3.40;;;;;;;;;;5020140;28;20369;-71
2023/11/07 10:32:14;;;;;;;5.47;3.40;;;;;;;;;;5020786;28;20209;-68
2023/11/07 10:34:39;;;;;;;6.05;3.20;;;;;;;;;;5025128;28;20210;-69
2023/11/07 10:37:05;;;;;;;6.53;3.72;;;;;;;;;;5027461;28;20561;-70
2023/11/07 10:39:33;;;;;;;6.47;3.08;;;;;;;;;;5015501;28;20190;-70
2023/11/07 10:42:22;;;;;;;13.50;3.38;;;;;;;;;;5024396;28;20190;-69
2023/11/07 10:44:59;;;;;;;6.18;3.30;;;;;;;;;;5018045;28;20301;-69
2023/11/07 10:47:34;;;;;;;7.05;3.50;;;;;;;;;;5021489;28;20194;-69
2023/11/07 10:50:00;;;;;;;8.30;3.53;;;;;;;;;;5040595;28;20587;-69
2023/11/07 10:52:27;;;;;;;5.15;3.35;;;;;;;;;;5013085;28;20669;-69
2023/11/07 10:54:52;;;;;;;11.02;3.60;;;;;;;;;;5027269;28;20190;-69
2023/11/07 10:57:22;;;;;;;5.75;3.20;;;;;;;;;;5025060;28;20312;-68
2023/11/07 10:59:49;;;;;;;6.72;3.28;;;;;;;;;;5025245;28;20192;-68
2023/11/07 11:02:16;;;;;;;9.93;3.30;;;;;;;;;;5028181;28;20197;-68
2023/11/07 11:04:43;;;;;;;7.15;3.10;;;;;;;;;;5023045;28;20178;-69
2023/11/07 11:07:10;;;;;;;6.72;2.70;;;;;;;;;;5025490;28;20308;-69
2023/11/07 11:09:36;;;;;;;7.05;2.53;;;;;;;;;;5014401;28;20241;-69
2023/11/07 11:12:03;;;;;;;8.77;3.00;;;;;;;;;;5021155;28;20202;-69
2023/11/07 11:14:28;;;;;;;8.27;2.78;;;;;;;;;;5021746;28;20262;-69
2023/11/07 11:17:06;;;;;;;4.82;2.50;;;;;;;;;;5026143;28;20248;-70
2023/11/07 11:19:38;;;;;;;4.63;2.63;;;;;;;;;;5024652;28;20186;-71
2023/11/07 11:22:29;;;;;;;8.10;2.65;;;;;;;;;;5025769;28;20214;-70
2023/11/07 11:25:05;;;;;;;7.50;2.42;;;;;;;;;;5024822;28;20197;-69
2023/11/07 11:27:41;;;;;;;5.45;2.67;;;;;;;;;;5040655;28;20257;-69
2023/11/07 11:30:07;;;;;;;7.68;2.40;;;;;;;;;;5025113;28;20190;-70
2023/11/07 11:32:33;;;;;;;8.48;2.80;;;;;;;;;;5026224;28;20197;-70
2023/11/07 11:35:17;;;;;;;8.80;2.63;;;;;;;;;;5027940;28;20186;-70
2023/11/07 11:38:20;;;;;;;6.25;2.90;;;;;;;;;;5020417;28;20664;-68
2023/11/07 11:40:57;;;;;;;5.72;2.60;;;;;;;;;;5027192;28;20177;-68
2023/11/07 11:43:31;;;;;;;6.63;2.75;;;;;;;;;;5031099;28;20189;-68
2023/11/07 11:46:18;;;;;;;6.60;3.50;;;;;;;;;;5018468;28;20273;-71
2023/11/07 11:48:49;;;;;;;7.43;2.85;;;;;;;;;;5023857;28;20247;-70
2023/11/07 11:51:38;;;;;;;4.13;2.80;;;;;;;;;;5019369;28;20190;-69
2023/11/07 11:54:09;;;;;;;7.20;2.45;;;;;;;;;;5038620;28;20290;-69
2023/11/07 11:56:58;;;;;;;5.72;2.83;;;;;;;;;;5022870;28;20194;-72
2023/11/07 11:59:29;;;;;;;6.07;2.75;;;;;;;;;;5007011;28;20658;-69
2023/11/07 12:02:03;;;;;;;5.20;2.47;;;;;;;;;;5025666;28;20595;-69
2023/11/07 12:04:33;;;;;;;8.45;2.97;;;;;;;;;;5028014;28;20216;-69
2023/11/07 12:07:13;;;;;;;5.22;2.83;;;;;;;;;;5022794;28;20201;-69
2023/11/07 12:09:44;;;;;;;8.60;2.90;;;;;;;;;;5032739;28;20186;-68
2023/11/07 12:12:13;;;;;;;7.28;3.05;;;;;;;;;;5028767;28;20179;-69
2023/11/07 12:14:50;;;;;;;8.40;3.20;;;;;;;;;;5028962;28;20320;-69
2023/11/07 12:17:16;;;;;;;5.93;2.78;;;;;;;;;;5030661;28;20233;-69
2023/11/07 12:19:44;;;;;;;5.97;2.70;;;;;;;;;;5029657;28;20224;-69
2023/11/07 12:22:09;;;;;;;6.78;2.75;;;;;;;;;;5030854;28;20622;-70
2023/11/07 12:24:35;;;;;;;5.32;2.80;;;;;;;;;;5031130;28;20193;-70
2023/11/07 12:27:00;;;;;;;10.15;3.10;;;;;;;;;;5031929;28;20672;-68
2023/11/07 12:29:33;;;;;;;6.00;3.38;;;;;;;;;;5029700;28;20208;-69
2023/11/07 12:31:58;;;;;;;3.95;2.55;;;;;;;;;;5022610;28;20641;-70
2023/11/07 12:34:31;;;;;;;6.25;2.35;;;;;;;;;;5029250;28;20210;-70
2023/11/07 12:36:59;;;;;;;9.23;3.15;;;;;;;;;;5011324;28;20654;-69
2023/11/07 12:39:27;;;;;;;9.35;2.25;;;;;;;;;;5031760;28;20293;-70
2023/11/07 12:41:53;;;;;;;5.28;2.55;;;;;;;;;;5022861;28;20191;-70
2023/11/07 12:44:18;;;;;;;6.50;2.40;;;;;;;;;;5022781;28;20189;-71
2023/11/07 12:46:45;;;;;;;4.55;2.08;;;;;;;;;;5027103;28;20194;-69
2023/11/07 12:49:16;;;;;;;5.57;2.35;;;;;;;;;;5028144;28;20201;-69
2023/11/07 12:51:42;;;;;;;6.88;2.45;;;;;;;;;;5026401;28;20241;-72
2023/11/07 12:54:07;;;;;;;5.78;2.15;;;;;;;;;;5032107;28;20233;-69
2023/11/07 12:56:43;;;;;;;5.05;1.83;;;;;;;;;;5047103;28;20197;-70
2023/11/07 12:59:13;;;;;;;7.70;2.28;;;;;;;;;;5039938;28;20190;-69
2023/11/07 13:01:40;;;;;;;6.55;1.90;;;;;;;;;;5029008;28;20653;-70
2023/11/07 13:04:13;;;;;;;6.07;1.90;;;;;;;;;;5029190;28;20186;-69
2023/11/07 13:07:01;;;;;;;10.02;2.00;;;;;;;;;;5044642;28;20297;-69
2023/11/07 13:09:27;;;;;;;4.30;1.52;;;;;;;;;;5030955;28;20186;-69
2023/11/07 13:12:06;;;;;;;5.85;1.85;;;;;;;;;;5033656;28;20617;-69
2023/11/07 13:14:31;;;;;;;4.55;1.48;;;;;;;;;;5019317;28;20314;-70
2023/11/07 13:16:57;;;;;;;5.53;1.95;;;;;;;;;;5021171;28;20275;-73
2023/11/07 13:19:22;;;;;;;5.93;1.80;;;;;;;;;;5029184;28;20244;-69
2023/11/07 13:21:48;;;;;;;8.38;1.60;;;;;;;;;;5029124;28;20213;-70
2023/11/07 13:24:14;;;;;;;4.78;1.75;;;;;;;;;;5026460;28;20194;-69
2023/11/07 13:26:39;;;;;;;7.07;2.05;;;;;;;;;;5029363;28;20549;-71
2023/11/07 13:29:05;;;;;;;4.60;1.38;;;;;;;;;;4325382;28;10000688;-70
2023/11/07 13:31:31;;;;;;;6.25;1.73;;;;;;;;;;5026693;28;20189;-70
2023/11/07 13:33:56;;;;;;;3.70;1.30;;;;;;;;;;5023068;28;20964;-71
2023/11/07 13:36:22;;;;;;;6.00;1.77;;;;;;;;;;5024990;28;20316;-70
2023/11/07 13:38:47;;;;;;;4.63;1.70;;;;;;;;;;5018490;28;20186;-70
2023/11/07 13:41:13;;;;;;;5.32;1.50;;;;;;;;;;5023239;28;20235;-71
2023/11/07 13:43:40;;;;;;;6.68;1.83;;;;;;;;;;5032391;28;20182;-70
2023/11/07 13:46:05;;;;;;;4.60;1.45;;;;;;;;;;5020244;28;20196;-68
2023/11/07 13:48:32;;;;;;;5.65;1.65;;;;;;;;;;5015109;28;20281;-69
2023/11/07 13:50:58;;;;;;;6.05;1.50;;;;;;;;;;5008402;28;20284;-71
2023/11/07 13:53:24;;;;;;;7.13;1.38;;;;;;;;;;5027246;28;20281;-71
2023/11/07 13:55:50;;;;;;;3.42;1.25;;;;;;;;;;5026882;28;20193;-70
2023/11/07 13:58:15;;;;;;;3.85;1.55;;;;;;;;;;5035869;28;20198;-69
2023/11/07 14:00:41;;;;;;;4.18;1.40;;;;;;;;;;5024334;28;20186;-70
2023/11/07 14:03:07;;;;;;;7.10;2.03;;;;;;;;;;5013833;28;20654;-73
2023/11/07 14:05:33;;;;;;;8.23;2.10;;;;;;;;;;5042654;28;20197;-70
2023/11/07 14:08:02;;;;;;;3.45;1.88;;;;;;;;;;5033385;28;20181;-70
2023/11/07 14:10:31;;;;;;;4.68;2.22;;;;;;;;;;5014701;28;20182;-70
2023/11/07 14:12:57;;;;;;;5.05;1.80;;;;;;;;;;5032864;28;20283;-69
2023/11/07 14:15:31;;;;;;;6.55;1.70;;;;;;;;;;5026242;28;20293;-72
2023/11/07 14:18:02;;;;;;;4.15;1.75;;;;;;;;;;5027384;28;20586;-71
2023/11/07 14:20:30;;;;;;;10.43;2.25;;;;;;;;;;5025942;28;20182;-71
2023/11/07 14:22:56;;;;;;;6.03;1.58;;;;;;;;;;5031033;28;20201;-71
2023/11/07 14:25:27;;;;;;;3.80;1.45;;;;;;;;;;5008056;28;20179;-70
2023/11/07 14:27:53;;;;;;;8.20;1.52;;;;;;;;;;5023050;28;20186;-71
2023/11/07 14:30:19;;;;;;;8.75;2.08;;;;;;;;;;5029603;28;20641;-69
2023/11/07 14:32:47;;;;;;;7.70;1.58;;;;;;;;;;5029197;28;20182;-71
2023/11/07 14:35:15;;;;;;;5.55;1.67;;;;;;;;;;5021724;28;20237;-72